sensor_id;sensor_type;location;lat;lon;timestamp;P1;durP1;ratioP1;P2;durP2;ratioP2
72493;SDS011;60520;49.182;-0.348;2023-08-21T00:00:56;1.67;;;0.75;;
72493;SDS011;60520;49.182;-0.348;2023-08-21T00:03:23;1.80;;;0.82;;
72493;SDS011;60520;49.182;-0.348;2023-08-21T00:05:51;1.88;;;0.80;;
72493;SDS011;60520;49.182;-0.348;2023-08-21T00:08:18;1.60;;;0.80;;
72493;SDS011;60520;49.182;-0.348;2023-08-21T00:10:45;1.98;;;0.82;;
72493;SDS011;60520;49.182;-0.348;2023-08-21T00:13:12;1.90;;;0.73;;
72493;SDS011;60520;49.182;-0.348;2023-08-21T00:15:41;1.95;;;0.90;;
72493;SDS011;60520;49.182;-0.348;2023-08-21T00:18:08;1.20;;;0.80;;
72493;SDS011;60520;49.182;-0.348;2023-08-21T00:20:35;1.70;;;0.77;;
72493;SDS011;60520;49.182;-0.348;2023-08-21T00:23:02;2.13;;;0.90;;
72493;SDS011;60520;49.182;-0.348;2023-08-21T00:25:29;2.10;;;0.90;;
72493;SDS011;60520;49.182;-0.348;2023-08-21T00:27:56;2.22;;;0.73;;
72493;SDS011;60520;49.182;-0.348;2023-08-21T00:30:23;1.67;;;0.70;;
72493;SDS011;60520;49.182;-0.348;2023-08-21T00:32:52;1.45;;;0.70;;
72493;SDS011;60520;49.182;-0.348;2023-08-21T00:35:19;2.42;;;0.70;;
72493;SDS011;60520;49.182;-0.348;2023-08-21T00:37:46;2.08;;;0.90;;
72493;SDS011;60520;49.182;-0.348;2023-08-21T00:40:13;1.58;;;0.68;;
72493;SDS011;60520;49.182;-0.348;2023-08-21T00:42:40;1.08;;;0.73;;
72493;SDS011;60520;49.182;-0.348;2023-08-21T00:45:08;2.15;;;1.02;;
72493;SDS011;60520;49.182;-0.348;2023-08-21T00:47:36;1.33;;;0.60;;
72493;SDS011;60520;49.182;-0.348;2023-08-21T00:50:06;2.15;;;0.90;;
72493;SDS011;60520;49.182;-0.348;2023-08-21T00:52:34;1.70;;;0.77;;
72493;SDS011;60520;49.182;-0.348;2023-08-21T00:55:01;1.70;;;0.70;;
72493;SDS011;60520;49.182;-0.348;2023-08-21T00:57:28;1.77;;;0.65;;
72493;SDS011;60520;49.182;-0.348;2023-08-21T00:59:56;1.77;;;0.70;;
72493;SDS011;60520;49.182;-0.348;2023-08-21T01:02:23;2.10;;;0.90;;
72493;SDS011;60520;49.182;-0.348;2023-08-21T01:04:51;2.28;;;0.82;;
72493;SDS011;60520;49.182;-0.348;2023-08-21T01:07:19;2.45;;;0.77;;
72493;SDS011;60520;49.182;-0.348;2023-08-21T01:09:49;2.40;;;0.80;;
72493;SDS011;60520;49.182;-0.348;2023-08-21T01:12:21;2.45;;;0.80;;
72493;SDS011;60520;49.182;-0.348;2023-08-21T01:14:51;1.50;;;0.80;;
72493;SDS011;60520;49.182;-0.348;2023-08-21T01:17:20;2.05;;;0.80;;
72493;SDS011;60520;49.182;-0.348;2023-08-21T01:19:48;1.95;;;0.80;;
72493;SDS011;60520;49.182;-0.348;2023-08-21T01:22:16;2.95;;;0.90;;
72493;SDS011;60520;49.182;-0.348;2023-08-21T01:24:44;1.20;;;0.70;;
72493;SDS011;60520;49.182;-0.348;2023-08-21T01:27:12;1.70;;;0.88;;
72493;SDS011;60520;49.182;-0.348;2023-08-21T01:29:40;2.78;;;0.80;;
72493;SDS011;60520;49.182;-0.348;2023-08-21T01:32:09;1.33;;;0.70;;
72493;SDS011;60520;49.182;-0.348;2023-08-21T01:34:38;2.25;;;0.90;;
72493;SDS011;60520;49.182;-0.348;2023-08-21T01:37:06;2.00;;;0.80;;
72493;SDS011;60520;49.182;-0.348;2023-08-21T01:39:33;2.30;;;0.82;;
72493;SDS011;60520;49.182;-0.348;2023-08-21T01:42:02;1.60;;;0.80;;
72493;SDS011;60520;49.182;-0.348;2023-08-21T01:44:29;1.67;;;0.70;;
72493;SDS011;60520;49.182;-0.348;2023-08-21T01:46:56;1.40;;;0.73;;
72493;SDS011;60520;49.182;-0.348;2023-08-21T01:49:23;1.52;;;0.77;;
72493;SDS011;60520;49.182;-0.348;2023-08-21T01:51:50;1.85;;;0.73;;
72493;SDS011;60520;49.182;-0.348;2023-08-21T01:54:18;2.05;;;0.80;;
72493;SDS011;60520;49.182;-0.348;2023-08-21T01:56:45;2.60;;;0.85;;
72493;SDS011;60520;49.182;-0.348;2023-08-21T01:59:13;1.20;;;0.70;;
72493;SDS011;60520;49.182;-0.348;2023-08-21T02:01:40;1.55;;;0.68;;
72493;SDS011;60520;49.182;-0.348;2023-08-21T02:04:07;1.70;;;0.80;;
72493;SDS011;60520;49.182;-0.348;2023-08-21T02:06:34;1.48;;;0.65;;
72493;SDS011;60520;49.182;-0.348;2023-08-21T02:09:01;1.92;;;0.80;;
72493;SDS011;60520;49.182;-0.348;2023-08-21T02:11:28;2.25;;;0.70;;
72493;SDS011;60520;49.182;-0.348;2023-08-21T02:13:56;1.90;;;0.90;;
72493;SDS011;60520;49.182;-0.348;2023-08-21T02:16:24;1.73;;;0.85;;
72493;SDS011;60520;49.182;-0.348;2023-08-21T02:18:51;2.40;;;1.00;;
72493;SDS011;60520;49.182;-0.348;2023-08-21T02:21:18;1.63;;;0.60;;
72493;SDS011;60520;49.182;-0.348;2023-08-21T02:23:45;2.47;;;0.90;;
72493;SDS011;60520;49.182;-0.348;2023-08-21T02:26:12;1.98;;;0.90;;
72493;SDS011;60520;49.182;-0.348;2023-08-21T02:28:40;1.75;;;0.68;;
72493;SDS011;60520;49.182;-0.348;2023-08-21T02:31:08;1.83;;;0.75;;
72493;SDS011;60520;49.182;-0.348;2023-08-21T02:33:37;3.17;;;0.90;;
72493;SDS011;60520;49.182;-0.348;2023-08-21T02:36:04;2.60;;;0.73;;
72493;SDS011;60520;49.182;-0.348;2023-08-21T02:38:32;1.60;;;0.85;;
72493;SDS011;60520;49.182;-0.348;2023-08-21T02:40:59;1.80;;;0.80;;
72493;SDS011;60520;49.182;-0.348;2023-08-21T02:43:26;2.03;;;0.80;;
72493;SDS011;60520;49.182;-0.348;2023-08-21T02:45:53;1.95;;;0.80;;
72493;SDS011;60520;49.182;-0.348;2023-08-21T02:48:20;1.88;;;0.80;;
72493;SDS011;60520;49.182;-0.348;2023-08-21T02:50:49;2.10;;;0.90;;
72493;SDS011;60520;49.182;-0.348;2023-08-21T02:53:16;1.52;;;0.70;;
72493;SDS011;60520;49.182;-0.348;2023-08-21T02:55:43;0.88;;;0.63;;
72493;SDS011;60520;49.182;-0.348;2023-08-21T02:58:10;1.33;;;0.88;;
72493;SDS011;60520;49.182;-0.348;2023-08-21T03:00:38;1.52;;;0.70;;
72493;SDS011;60520;49.182;-0.348;2023-08-21T03:03:05;1.38;;;0.70;;
72493;SDS011;60520;49.182;-0.348;2023-08-21T03:05:32;2.50;;;1.00;;
72493;SDS011;60520;49.182;-0.348;2023-08-21T03:08:01;2.22;;;0.98;;
72493;SDS011;60520;49.182;-0.348;2023-08-21T03:10:28;0.93;;;0.60;;
72493;SDS011;60520;49.182;-0.348;2023-08-21T03:12:58;1.50;;;0.73;;
72493;SDS011;60520;49.182;-0.348;2023-08-21T03:15:25;2.22;;;0.80;;
72493;SDS011;60520;49.182;-0.348;2023-08-21T03:17:52;1.92;;;0.90;;
72493;SDS011;60520;49.182;-0.348;2023-08-21T03:20:20;2.13;;;0.80;;
72493;SDS011;60520;49.182;-0.348;2023-08-21T03:22:47;2.17;;;0.77;;
72493;SDS011;60520;49.182;-0.348;2023-08-21T03:25:15;1.55;;;0.80;;
72493;SDS011;60520;49.182;-0.348;2023-08-21T03:27:42;3.00;;;0.95;;
72493;SDS011;60520;49.182;-0.348;2023-08-21T03:30:14;1.50;;;0.77;;
72493;SDS011;60520;49.182;-0.348;2023-08-21T03:32:41;1.38;;;0.80;;
72493;SDS011;60520;49.182;-0.348;2023-08-21T03:35:08;1.65;;;0.65;;
72493;SDS011;60520;49.182;-0.348;2023-08-21T03:37:35;1.92;;;0.88;;
72493;SDS011;60520;49.182;-0.348;2023-08-21T03:40:03;1.85;;;0.95;;
72493;SDS011;60520;49.182;-0.348;2023-08-21T03:42:31;2.40;;;0.93;;
72493;SDS011;60520;49.182;-0.348;2023-08-21T03:44:58;1.60;;;0.80;;
72493;SDS011;60520;49.182;-0.348;2023-08-21T03:47:26;2.55;;;1.13;;
72493;SDS011;60520;49.182;-0.348;2023-08-21T03:49:53;1.13;;;0.70;;
72493;SDS011;60520;49.182;-0.348;2023-08-21T03:52:20;1.73;;;0.63;;
72493;SDS011;60520;49.182;-0.348;2023-08-21T03:54:47;1.52;;;0.73;;
72493;SDS011;60520;49.182;-0.348;2023-08-21T03:57:14;1.58;;;0.70;;
72493;SDS011;60520;49.182;-0.348;2023-08-21T03:59:42;1.50;;;0.82;;
72493;SDS011;60520;49.182;-0.348;2023-08-21T04:02:10;2.33;;;0.82;;
72493;SDS011;60520;49.182;-0.348;2023-08-21T04:04:37;2.28;;;0.80;;
72493;SDS011;60520;49.182;-0.348;2023-08-21T04:07:04;1.08;;;0.45;;
72493;SDS011;60520;49.182;-0.348;2023-08-21T04:09:34;1.17;;;0.60;;
72493;SDS011;60520;49.182;-0.348;2023-08-21T04:12:01;1.50;;;0.80;;
72493;SDS011;60520;49.182;-0.348;2023-08-21T04:14:28;0.90;;;0.60;;
72493;SDS011;60520;49.182;-0.348;2023-08-21T04:16:57;1.40;;;0.90;;
72493;SDS011;60520;49.182;-0.348;2023-08-21T04:19:24;1.70;;;0.77;;
72493;SDS011;60520;49.182;-0.348;2023-08-21T04:21:55;1.85;;;0.73;;
72493;SDS011;60520;49.182;-0.348;2023-08-21T04:24:22;1.60;;;0.65;;
72493;SDS011;60520;49.182;-0.348;2023-08-21T04:26:49;1.70;;;0.80;;
72493;SDS011;60520;49.182;-0.348;2023-08-21T04:29:16;1.90;;;0.70;;
72493;SDS011;60520;49.182;-0.348;2023-08-21T04:31:43;1.40;;;0.80;;
72493;SDS011;60520;49.182;-0.348;2023-08-21T04:34:12;1.85;;;0.80;;
72493;SDS011;60520;49.182;-0.348;2023-08-21T04:36:39;1.42;;;0.60;;
72493;SDS011;60520;49.182;-0.348;2023-08-21T04:39:06;1.40;;;0.70;;
72493;SDS011;60520;49.182;-0.348;2023-08-21T04:41:33;1.98;;;0.88;;
72493;SDS011;60520;49.182;-0.348;2023-08-21T04:44:01;1.55;;;0.77;;
72493;SDS011;60520;49.182;-0.348;2023-08-21T04:46:28;1.90;;;0.80;;
72493;SDS011;60520;49.182;-0.348;2023-08-21T04:48:55;2.67;;;0.80;;
72493;SDS011;60520;49.182;-0.348;2023-08-21T04:51:24;1.58;;;0.70;;
72493;SDS011;60520;49.182;-0.348;2023-08-21T04:53:51;0.98;;;0.80;;
72493;SDS011;60520;49.182;-0.348;2023-08-21T04:56:18;1.23;;;0.63;;
72493;SDS011;60520;49.182;-0.348;2023-08-21T04:58:45;1.98;;;0.80;;
72493;SDS011;60520;49.182;-0.348;2023-08-21T05:01:12;1.88;;;0.70;;
72493;SDS011;60520;49.182;-0.348;2023-08-21T05:03:39;1.10;;;0.77;;
72493;SDS011;60520;49.182;-0.348;2023-08-21T05:06:07;1.42;;;0.60;;
72493;SDS011;60520;49.182;-0.348;2023-08-21T05:08:35;0.93;;;0.60;;
72493;SDS011;60520;49.182;-0.348;2023-08-21T05:11:02;0.73;;;0.57;;
72493;SDS011;60520;49.182;-0.348;2023-08-21T05:13:29;1.08;;;0.68;;
72493;SDS011;60520;49.182;-0.348;2023-08-21T05:15:57;0.75;;;0.47;;
72493;SDS011;60520;49.182;-0.348;2023-08-21T05:18:25;0.95;;;0.43;;
72493;SDS011;60520;49.182;-0.348;2023-08-21T05:20:53;1.25;;;0.60;;
72493;SDS011;60520;49.182;-0.348;2023-08-21T05:23:21;1.25;;;0.50;;
72493;SDS011;60520;49.182;-0.348;2023-08-21T05:25:50;0.82;;;0.60;;
72493;SDS011;60520;49.182;-0.348;2023-08-21T05:28:17;1.15;;;0.40;;
72493;SDS011;60520;49.182;-0.348;2023-08-21T05:30:46;0.75;;;0.43;;
72493;SDS011;60520;49.182;-0.348;2023-08-21T05:33:13;0.80;;;0.50;;
72493;SDS011;60520;49.182;-0.348;2023-08-21T05:35:41;1.08;;;0.45;;
72493;SDS011;60520;49.182;-0.348;2023-08-21T05:38:08;0.52;;;0.40;;
72493;SDS011;60520;49.182;-0.348;2023-08-21T05:40:35;0.98;;;0.55;;
72493;SDS011;60520;49.182;-0.348;2023-08-21T05:43:03;0.60;;;0.40;;
72493;SDS011;60520;49.182;-0.348;2023-08-21T05:45:30;0.52;;;0.40;;
72493;SDS011;60520;49.182;-0.348;2023-08-21T05:47:58;0.80;;;0.40;;
72493;SDS011;60520;49.182;-0.348;2023-08-21T05:50:25;0.98;;;0.40;;
72493;SDS011;60520;49.182;-0.348;2023-08-21T05:52:52;0.80;;;0.50;;
72493;SDS011;60520;49.182;-0.348;2023-08-21T05:55:19;0.88;;;0.50;;
72493;SDS011;60520;49.182;-0.348;2023-08-21T05:57:47;1.40;;;0.52;;
72493;SDS011;60520;49.182;-0.348;2023-08-21T06:00:16;0.50;;;0.50;;
72493;SDS011;60520;49.182;-0.348;2023-08-21T06:02:43;0.77;;;0.50;;
72493;SDS011;60520;49.182;-0.348;2023-08-21T06:05:10;0.80;;;0.50;;
72493;SDS011;60520;49.182;-0.348;2023-08-21T06:07:37;1.45;;;0.60;;
72493;SDS011;60520;49.182;-0.348;2023-08-21T06:10:05;1.08;;;0.55;;
72493;SDS011;60520;49.182;-0.348;2023-08-21T06:12:33;1.17;;;0.70;;
72493;SDS011;60520;49.182;-0.348;2023-08-21T06:15:00;0.98;;;0.55;;
72493;SDS011;60520;49.182;-0.348;2023-08-21T06:17:29;1.15;;;0.63;;
72493;SDS011;60520;49.182;-0.348;2023-08-21T06:19:56;1.35;;;0.68;;
72493;SDS011;60520;49.182;-0.348;2023-08-21T06:22:23;2.03;;;0.70;;
72493;SDS011;60520;49.182;-0.348;2023-08-21T06:24:50;0.55;;;0.50;;
72493;SDS011;60520;49.182;-0.348;2023-08-21T06:27:17;1.20;;;0.65;;
72493;SDS011;60520;49.182;-0.348;2023-08-21T06:29:44;0.90;;;0.50;;
72493;SDS011;60520;49.182;-0.348;2023-08-21T06:32:12;0.88;;;0.65;;
72493;SDS011;60520;49.182;-0.348;2023-08-21T06:34:40;1.17;;;0.63;;
72493;SDS011;60520;49.182;-0.348;2023-08-21T06:37:07;1.33;;;0.60;;
72493;SDS011;60520;49.182;-0.348;2023-08-21T06:39:34;0.95;;;0.60;;
72493;SDS011;60520;49.182;-0.348;2023-08-21T06:42:01;0.75;;;0.52;;
72493;SDS011;60520;49.182;-0.348;2023-08-21T06:44:29;1.35;;;0.60;;
72493;SDS011;60520;49.182;-0.348;2023-08-21T06:46:56;0.70;;;0.65;;
72493;SDS011;60520;49.182;-0.348;2023-08-21T06:49:23;1.67;;;0.90;;
72493;SDS011;60520;49.182;-0.348;2023-08-21T06:51:51;1.02;;;0.52;;
72493;SDS011;60520;49.182;-0.348;2023-08-21T06:54:18;1.42;;;0.80;;
72493;SDS011;60520;49.182;-0.348;2023-08-21T06:56:46;1.65;;;0.60;;
72493;SDS011;60520;49.182;-0.348;2023-08-21T06:59:13;0.70;;;0.57;;
72493;SDS011;60520;49.182;-0.348;2023-08-21T07:01:40;0.50;;;0.50;;
72493;SDS011;60520;49.182;-0.348;2023-08-21T07:04:07;1.42;;;0.60;;
72493;SDS011;60520;49.182;-0.348;2023-08-21T07:06:34;2.50;;;0.55;;
72493;SDS011;60520;49.182;-0.348;2023-08-21T07:09:03;6.28;;;1.20;;
72493;SDS011;60520;49.182;-0.348;2023-08-21T07:11:30;11.35;;;1.10;;
72493;SDS011;60520;49.182;-0.348;2023-08-21T07:13:57;9.27;;;1.38;;
72493;SDS011;60520;49.182;-0.348;2023-08-21T07:16:24;24.90;;;2.28;;
72493;SDS011;60520;49.182;-0.348;2023-08-21T07:18:52;19.25;;;1.92;;
72493;SDS011;60520;49.182;-0.348;2023-08-21T07:21:19;16.42;;;1.75;;
72493;SDS011;60520;49.182;-0.348;2023-08-21T07:23:46;18.70;;;1.98;;
72493;SDS011;60520;49.182;-0.348;2023-08-21T07:26:15;14.20;;;1.45;;
72493;SDS011;60520;49.182;-0.348;2023-08-21T07:28:42;13.88;;;1.50;;
72493;SDS011;60520;49.182;-0.348;2023-08-21T07:31:09;22.08;;;1.98;;
72493;SDS011;60520;49.182;-0.348;2023-08-21T07:33:36;12.30;;;1.35;;
72493;SDS011;60520;49.182;-0.348;2023-08-21T07:36:04;11.00;;;1.35;;
72493;SDS011;60520;49.182;-0.348;2023-08-21T07:38:31;13.35;;;1.58;;
72493;SDS011;60520;49.182;-0.348;2023-08-21T07:41:02;9.18;;;1.17;;
72493;SDS011;60520;49.182;-0.348;2023-08-21T07:43:31;16.45;;;1.42;;
72493;SDS011;60520;49.182;-0.348;2023-08-21T07:46:01;9.02;;;0.98;;
72493;SDS011;60520;49.182;-0.348;2023-08-21T07:48:28;10.40;;;1.23;;
72493;SDS011;60520;49.182;-0.348;2023-08-21T07:50:55;6.95;;;1.17;;
72493;SDS011;60520;49.182;-0.348;2023-08-21T07:53:23;10.65;;;1.20;;
72493;SDS011;60520;49.182;-0.348;2023-08-21T07:55:50;3.10;;;1.10;;
72493;SDS011;60520;49.182;-0.348;2023-08-21T07:58:17;4.82;;;0.85;;
72493;SDS011;60520;49.182;-0.348;2023-08-21T08:00:45;3.35;;;0.90;;
72493;SDS011;60520;49.182;-0.348;2023-08-21T08:03:13;4.43;;;1.35;;
72493;SDS011;60520;49.182;-0.348;2023-08-21T08:05:41;2.38;;;0.98;;
72493;SDS011;60520;49.182;-0.348;2023-08-21T08:08:08;5.43;;;1.40;;
72493;SDS011;60520;49.182;-0.348;2023-08-21T08:10:36;3.42;;;1.00;;
72493;SDS011;60520;49.182;-0.348;2023-08-21T08:13:04;4.63;;;1.10;;
72493;SDS011;60520;49.182;-0.348;2023-08-21T08:15:31;2.67;;;1.15;;
72493;SDS011;60520;49.182;-0.348;2023-08-21T08:18:01;2.30;;;1.20;;
72493;SDS011;60520;49.182;-0.348;2023-08-21T08:20:28;2.42;;;1.40;;
72493;SDS011;60520;49.182;-0.348;2023-08-21T08:22:55;4.07;;;1.20;;
72493;SDS011;60520;49.182;-0.348;2023-08-21T08:25:22;3.25;;;1.50;;
72493;SDS011;60520;49.182;-0.348;2023-08-21T08:27:51;2.72;;;1.40;;
72493;SDS011;60520;49.182;-0.348;2023-08-21T08:30:18;2.63;;;1.65;;
72493;SDS011;60520;49.182;-0.348;2023-08-21T08:32:45;2.70;;;1.88;;
72493;SDS011;60520;49.182;-0.348;2023-08-21T08:35:13;3.78;;;2.13;;
72493;SDS011;60520;49.182;-0.348;2023-08-21T08:37:40;4.35;;;1.92;;
72493;SDS011;60520;49.182;-0.348;2023-08-21T08:40:08;4.53;;;2.15;;
72493;SDS011;60520;49.182;-0.348;2023-08-21T08:42:35;4.47;;;2.30;;
72493;SDS011;60520;49.182;-0.348;2023-08-21T08:45:03;4.32;;;2.10;;
72493;SDS011;60520;49.182;-0.348;2023-08-21T08:47:31;2.90;;;2.22;;
72493;SDS011;60520;49.182;-0.348;2023-08-21T08:49:59;3.50;;;2.28;;
72493;SDS011;60520;49.182;-0.348;2023-08-21T08:52:30;2.60;;;2.40;;
72493;SDS011;60520;49.182;-0.348;2023-08-21T08:54:57;3.47;;;2.67;;
72493;SDS011;60520;49.182;-0.348;2023-08-21T08:57:25;3.00;;;2.50;;
72493;SDS011;60520;49.182;-0.348;2023-08-21T08:59:52;2.70;;;2.50;;
72493;SDS011;60520;49.182;-0.348;2023-08-21T09:02:19;2.97;;;2.40;;
72493;SDS011;60520;49.182;-0.348;2023-08-21T09:04:47;2.63;;;2.25;;
72493;SDS011;60520;49.182;-0.348;2023-08-21T09:07:16;3.80;;;3.00;;
72493;SDS011;60520;49.182;-0.348;2023-08-21T09:09:46;2.97;;;2.60;;
72493;SDS011;60520;49.182;-0.348;2023-08-21T09:12:14;3.28;;;2.45;;
72493;SDS011;60520;49.182;-0.348;2023-08-21T09:14:42;3.60;;;2.63;;
72493;SDS011;60520;49.182;-0.348;2023-08-21T09:17:09;2.90;;;2.60;;
72493;SDS011;60520;49.182;-0.348;2023-08-21T09:19:36;2.90;;;2.53;;
72493;SDS011;60520;49.182;-0.348;2023-08-21T09:22:07;3.42;;;2.60;;
72493;SDS011;60520;49.182;-0.348;2023-08-21T09:24:35;2.75;;;2.45;;
72493;SDS011;60520;49.182;-0.348;2023-08-21T09:27:03;2.92;;;2.60;;
72493;SDS011;60520;49.182;-0.348;2023-08-21T09:29:37;3.25;;;2.78;;
72493;SDS011;60520;49.182;-0.348;2023-08-21T09:32:05;2.63;;;2.42;;
72493;SDS011;60520;49.182;-0.348;2023-08-21T09:34:35;2.92;;;2.70;;
72493;SDS011;60520;49.182;-0.348;2023-08-21T09:37:04;2.72;;;2.30;;
72493;SDS011;60520;49.182;-0.348;2023-08-21T09:39:32;3.10;;;2.47;;
72493;SDS011;60520;49.182;-0.348;2023-08-21T09:42:00;2.50;;;2.28;;
72493;SDS011;60520;49.182;-0.348;2023-08-21T09:44:28;2.67;;;2.10;;
72493;SDS011;60520;49.182;-0.348;2023-08-21T09:46:55;3.58;;;2.15;;
72493;SDS011;60520;49.182;-0.348;2023-08-21T09:49:22;3.22;;;2.30;;
72493;SDS011;60520;49.182;-0.348;2023-08-21T09:51:50;2.45;;;2.25;;
72493;SDS011;60520;49.182;-0.348;2023-08-21T09:54:17;2.10;;;1.90;;
72493;SDS011;60520;49.182;-0.348;2023-08-21T09:56:45;2.38;;;2.13;;
72493;SDS011;60520;49.182;-0.348;2023-08-21T09:59:13;2.08;;;1.88;;
72493;SDS011;60520;49.182;-0.348;2023-08-21T10:01:41;1.85;;;1.60;;
72493;SDS011;60520;49.182;-0.348;2023-08-21T10:04:09;2.53;;;1.88;;
72493;SDS011;60520;49.182;-0.348;2023-08-21T10:06:36;2.25;;;1.80;;
72493;SDS011;60520;49.182;-0.348;2023-08-21T10:09:05;2.00;;;1.73;;
72493;SDS011;60520;49.182;-0.348;2023-08-21T10:11:33;2.47;;;1.70;;
72493;SDS011;60520;49.182;-0.348;2023-08-21T10:14:00;2.30;;;1.90;;
72493;SDS011;60520;49.182;-0.348;2023-08-21T10:16:28;1.60;;;1.50;;
72493;SDS011;60520;49.182;-0.348;2023-08-21T10:18:57;1.75;;;1.60;;
72493;SDS011;60520;49.182;-0.348;2023-08-21T10:21:31;1.50;;;1.40;;
72493;SDS011;60520;49.182;-0.348;2023-08-21T10:24:01;1.40;;;1.30;;
72493;SDS011;60520;49.182;-0.348;2023-08-21T10:26:28;1.35;;;1.25;;
72493;SDS011;60520;49.182;-0.348;2023-08-21T10:28:56;1.88;;;1.50;;
72493;SDS011;60520;49.182;-0.348;2023-08-21T10:31:28;1.58;;;1.10;;
72493;SDS011;60520;49.182;-0.348;2023-08-21T10:33:57;1.33;;;1.10;;
72493;SDS011;60520;49.182;-0.348;2023-08-21T10:36:37;1.42;;;1.10;;
72493;SDS011;60520;49.182;-0.348;2023-08-21T10:39:04;1.35;;;1.10;;
72493;SDS011;60520;49.182;-0.348;2023-08-21T10:41:39;1.35;;;0.85;;
72493;SDS011;60520;49.182;-0.348;2023-08-21T10:44:06;1.50;;;1.13;;
72493;SDS011;60520;49.182;-0.348;2023-08-21T10:49:17;2.45;;;1.00;;
72493;SDS011;60520;49.182;-0.348;2023-08-21T10:51:44;1.20;;;0.90;;
72493;SDS011;60520;49.182;-0.348;2023-08-21T10:54:11;1.00;;;0.70;;
72493;SDS011;60520;49.182;-0.348;2023-08-21T10:56:39;0.95;;;0.75;;
72493;SDS011;60520;49.182;-0.348;2023-08-21T10:59:07;1.33;;;0.80;;
72493;SDS011;60520;49.182;-0.348;2023-08-21T11:01:42;1.27;;;0.70;;
72493;SDS011;60520;49.182;-0.348;2023-08-21T11:04:09;1.23;;;0.82;;
72493;SDS011;60520;49.182;-0.348;2023-08-21T11:06:38;1.15;;;0.68;;
72493;SDS011;60520;49.182;-0.348;2023-08-21T11:09:05;0.73;;;0.70;;
72493;SDS011;60520;49.182;-0.348;2023-08-21T11:11:36;1.33;;;0.70;;
72493;SDS011;60520;49.182;-0.348;2023-08-21T11:14:04;0.70;;;0.60;;
72493;SDS011;60520;49.182;-0.348;2023-08-21T11:16:31;0.82;;;0.68;;
72493;SDS011;60520;49.182;-0.348;2023-08-21T11:18:58;0.60;;;0.50;;
72493;SDS011;60520;49.182;-0.348;2023-08-21T11:21:29;1.02;;;0.60;;
72493;SDS011;60520;49.182;-0.348;2023-08-21T11:23:58;0.70;;;0.60;;
72493;SDS011;60520;49.182;-0.348;2023-08-21T11:26:25;0.43;;;0.43;;
72493;SDS011;60520;49.182;-0.348;2023-08-21T11:28:52;1.85;;;0.70;;
72493;SDS011;60520;49.182;-0.348;2023-08-21T11:31:19;0.75;;;0.50;;
72493;SDS011;60520;49.182;-0.348;2023-08-21T11:33:49;0.77;;;0.60;;
72493;SDS011;60520;49.182;-0.348;2023-08-21T11:36:17;0.93;;;0.60;;
72493;SDS011;60520;49.182;-0.348;2023-08-21T11:38:54;0.77;;;0.40;;
72493;SDS011;60520;49.182;-0.348;2023-08-21T11:41:25;1.15;;;0.65;;
72493;SDS011;60520;49.182;-0.348;2023-08-21T11:43:52;1.02;;;0.50;;
72493;SDS011;60520;49.182;-0.348;2023-08-21T11:46:20;0.70;;;0.50;;
72493;SDS011;60520;49.182;-0.348;2023-08-21T11:48:47;1.25;;;0.50;;
72493;SDS011;60520;49.182;-0.348;2023-08-21T11:51:15;0.90;;;0.50;;
72493;SDS011;60520;49.182;-0.348;2023-08-21T11:53:42;0.82;;;0.50;;
72493;SDS011;60520;49.182;-0.348;2023-08-21T11:56:10;0.50;;;0.40;;
72493;SDS011;60520;49.182;-0.348;2023-08-21T11:58:39;0.90;;;0.50;;
72493;SDS011;60520;49.182;-0.348;2023-08-21T12:01:06;0.68;;;0.50;;
72493;SDS011;60520;49.182;-0.348;2023-08-21T12:03:38;0.60;;;0.45;;
72493;SDS011;60520;49.182;-0.348;2023-08-21T12:06:05;0.93;;;0.60;;
72493;SDS011;60520;49.182;-0.348;2023-08-21T12:08:33;1.17;;;0.50;;
72493;SDS011;60520;49.182;-0.348;2023-08-21T12:11:00;0.60;;;0.40;;
72493;SDS011;60520;49.182;-0.348;2023-08-21T12:13:27;0.40;;;0.40;;
72493;SDS011;60520;49.182;-0.348;2023-08-21T12:15:56;0.60;;;0.47;;
72493;SDS011;60520;49.182;-0.348;2023-08-21T12:18:23;0.80;;;0.40;;
72493;SDS011;60520;49.182;-0.348;2023-08-21T12:20:50;0.82;;;0.40;;
72493;SDS011;60520;49.182;-0.348;2023-08-21T12:23:17;0.75;;;0.50;;
72493;SDS011;60520;49.182;-0.348;2023-08-21T12:25:44;1.17;;;0.40;;
72493;SDS011;60520;49.182;-0.348;2023-08-21T12:28:12;0.40;;;0.40;;
72493;SDS011;60520;49.182;-0.348;2023-08-21T12:30:39;0.60;;;0.40;;
72493;SDS011;60520;49.182;-0.348;2023-08-21T12:33:07;0.47;;;0.32;;
72493;SDS011;60520;49.182;-0.348;2023-08-21T12:35:34;0.55;;;0.47;;
72493;SDS011;60520;49.182;-0.348;2023-08-21T12:38:05;0.40;;;0.30;;
72493;SDS011;60520;49.182;-0.348;2023-08-21T12:40:37;1.02;;;0.60;;
72493;SDS011;60520;49.182;-0.348;2023-08-21T12:43:04;0.50;;;0.40;;
72493;SDS011;60520;49.182;-0.348;2023-08-21T12:45:31;1.25;;;0.50;;
72493;SDS011;60520;49.182;-0.348;2023-08-21T12:47:58;0.40;;;0.40;;
72493;SDS011;60520;49.182;-0.348;2023-08-21T12:50:27;0.50;;;0.40;;
72493;SDS011;60520;49.182;-0.348;2023-08-21T12:52:54;0.40;;;0.40;;
72493;SDS011;60520;49.182;-0.348;2023-08-21T12:55:21;0.35;;;0.30;;
72493;SDS011;60520;49.182;-0.348;2023-08-21T12:57:48;0.63;;;0.40;;
72493;SDS011;60520;49.182;-0.348;2023-08-21T13:00:15;0.35;;;0.35;;
72493;SDS011;60520;49.182;-0.348;2023-08-21T13:02:43;0.68;;;0.40;;
72493;SDS011;60520;49.182;-0.348;2023-08-21T13:05:10;0.45;;;0.45;;
72493;SDS011;60520;49.182;-0.348;2023-08-21T13:07:38;0.82;;;0.43;;
72493;SDS011;60520;49.182;-0.348;2023-08-21T13:10:06;1.05;;;0.60;;
72493;SDS011;60520;49.182;-0.348;2023-08-21T13:12:33;0.75;;;0.40;;
72493;SDS011;60520;49.182;-0.348;2023-08-21T13:15:00;0.65;;;0.35;;
72493;SDS011;60520;49.182;-0.348;2023-08-21T13:17:28;0.47;;;0.40;;
72493;SDS011;60520;49.182;-0.348;2023-08-21T13:19:55;0.43;;;0.40;;
72493;SDS011;60520;49.182;-0.348;2023-08-21T13:22:22;0.65;;;0.40;;
72493;SDS011;60520;49.182;-0.348;2023-08-21T13:24:51;0.85;;;0.47;;
72493;SDS011;60520;49.182;-0.348;2023-08-21T13:27:18;0.50;;;0.40;;
72493;SDS011;60520;49.182;-0.348;2023-08-21T13:29:45;1.33;;;0.43;;
72493;SDS011;60520;49.182;-0.348;2023-08-21T13:32:12;1.00;;;0.50;;
72493;SDS011;60520;49.182;-0.348;2023-08-21T13:34:41;0.73;;;0.40;;
72493;SDS011;60520;49.182;-0.348;2023-08-21T13:37:08;0.95;;;0.40;;
72493;SDS011;60520;49.182;-0.348;2023-08-21T13:39:35;0.70;;;0.50;;
72493;SDS011;60520;49.182;-0.348;2023-08-21T13:42:03;0.50;;;0.40;;
72493;SDS011;60520;49.182;-0.348;2023-08-21T13:44:31;0.60;;;0.40;;
72493;SDS011;60520;49.182;-0.348;2023-08-21T13:46:58;0.50;;;0.40;;
72493;SDS011;60520;49.182;-0.348;2023-08-21T13:49:25;0.52;;;0.30;;
72493;SDS011;60520;49.182;-0.348;2023-08-21T13:51:52;0.47;;;0.40;;
72493;SDS011;60520;49.182;-0.348;2023-08-21T13:54:19;1.40;;;0.40;;
72493;SDS011;60520;49.182;-0.348;2023-08-21T13:56:46;0.82;;;0.40;;
72493;SDS011;60520;49.182;-0.348;2023-08-21T13:59:15;0.68;;;0.40;;
72493;SDS011;60520;49.182;-0.348;2023-08-21T14:01:42;1.10;;;0.55;;
72493;SDS011;60520;49.182;-0.348;2023-08-21T14:04:09;0.60;;;0.40;;
72493;SDS011;60520;49.182;-0.348;2023-08-21T14:06:36;0.52;;;0.40;;
72493;SDS011;60520;49.182;-0.348;2023-08-21T14:09:03;0.40;;;0.40;;
72493;SDS011;60520;49.182;-0.348;2023-08-21T14:11:30;1.35;;;0.60;;
72493;SDS011;60520;49.182;-0.348;2023-08-21T14:13:58;0.82;;;0.47;;
72493;SDS011;60520;49.182;-0.348;2023-08-21T14:16:26;0.88;;;0.40;;
72493;SDS011;60520;49.182;-0.348;2023-08-21T14:18:53;0.65;;;0.38;;
72493;SDS011;60520;49.182;-0.348;2023-08-21T14:21:20;0.40;;;0.30;;
72493;SDS011;60520;49.182;-0.348;2023-08-21T14:23:47;1.15;;;0.50;;
72493;SDS011;60520;49.182;-0.348;2023-08-21T14:26:14;3.28;;;0.40;;
72493;SDS011;60520;49.182;-0.348;2023-08-21T14:28:41;1.02;;;0.50;;
72493;SDS011;60520;49.182;-0.348;2023-08-21T14:31:15;0.52;;;0.30;;
72493;SDS011;60520;49.182;-0.348;2023-08-21T14:33:43;0.45;;;0.35;;
72493;SDS011;60520;49.182;-0.348;2023-08-21T14:36:10;1.08;;;0.40;;
72493;SDS011;60520;49.182;-0.348;2023-08-21T14:38:37;0.43;;;0.40;;